createdAt,value
2018-11-02T00:02:22.232Z,18.77
2018-11-02T00:04:51.030Z,18.30
2018-11-02T00:07:35.991Z,18.27
2018-11-02T00:10:18.883Z,18.43
2018-11-02T00:12:46.919Z,16.60
2018-11-02T00:15:14.924Z,20.47
2018-11-02T00:17:42.913Z,19.33
2018-11-02T00:20:10.821Z,18.33
2018-11-02T00:22:39.487Z,20.57
2018-11-02T00:25:07.497Z,20.17
2018-11-02T00:27:36.460Z,16.60
2018-11-02T00:30:04.770Z,17.73
2018-11-02T00:32:32.743Z,18.70
2018-11-02T00:35:00.873Z,16.67
2018-11-02T00:37:28.925Z,20.23
2018-11-02T00:39:58.260Z,18.30
2018-11-02T00:42:29.502Z,21.53
2018-11-02T00:44:57.516Z,19.27
2018-11-02T00:47:25.552Z,21.70
2018-11-02T00:49:53.613Z,19.10
2018-11-02T00:52:21.615Z,22.37
2018-11-02T00:54:49.741Z,20.80
2018-11-02T00:57:17.749Z,23.93
2018-11-02T00:59:45.702Z,21.90
2018-11-02T01:02:13.695Z,23.43
2018-11-02T01:04:41.717Z,22.23
2018-11-02T01:07:09.717Z,19.57
2018-11-02T01:09:37.729Z,19.67
2018-11-02T01:12:05.905Z,19.87
2018-11-02T01:14:33.920Z,17.30
2018-11-02T01:17:01.954Z,21.93
2018-11-02T01:19:32.781Z,22.70
2018-11-02T01:22:03.380Z,18.13
2018-11-02T01:24:31.644Z,21.50
2018-11-02T01:26:59.669Z,23.40
2018-11-02T01:29:28.100Z,21.17
2018-11-02T01:31:56.404Z,21.10
2018-11-02T01:34:24.470Z,16.73
2018-11-02T01:36:52.586Z,18.63
2018-11-02T01:39:20.709Z,22.67
2018-11-02T01:41:48.858Z,19.70
2018-11-02T01:44:16.841Z,22.10
2018-11-02T01:46:44.926Z,23.27
2018-11-02T01:49:13.287Z,18.43
2018-11-02T01:51:41.387Z,22.63
2018-11-02T01:54:09.309Z,20.83
2018-11-02T01:56:37.389Z,21.83
2018-11-02T01:59:05.745Z,22.63
2018-11-02T02:01:33.760Z,23.20
2018-11-02T02:04:02.716Z,25.07
2018-11-02T02:06:30.686Z,23.47
2018-11-02T02:08:58.724Z,23.77
2018-11-02T02:11:26.769Z,22.13
2018-11-02T02:13:54.781Z,19.53
2018-11-02T02:16:22.751Z,19.20
2018-11-02T02:18:50.884Z,23.90
2018-11-02T02:21:18.914Z,21.63
2018-11-02T02:23:46.979Z,19.10
2018-11-02T02:26:15.133Z,24.53
2018-11-02T02:28:43.129Z,23.13
2018-11-02T02:31:11.201Z,21.57
2018-11-02T02:33:39.280Z,24.27
2018-11-02T02:36:07.451Z,26.37
2018-11-02T02:38:35.436Z,25.97
2018-11-02T02:41:03.541Z,26.80
2018-11-02T02:43:32.837Z,27.73
2018-11-02T02:46:00.814Z,22.60
2018-11-02T02:48:28.841Z,27.23
2018-11-02T02:50:56.849Z,27.67
2018-11-02T02:53:24.828Z,27.73
2018-11-02T02:55:52.803Z,25.10
2018-11-02T02:58:20.862Z,27.97
2018-11-02T03:00:48.801Z,23.63
2018-11-02T03:03:16.892Z,22.60
2018-11-02T03:05:44.937Z,24.00
2018-11-02T03:08:12.870Z,26.57
2018-11-02T03:10:41.007Z,30.10
2018-11-02T03:13:08.933Z,21.23
2018-11-02T03:15:36.949Z,27.07
2018-11-02T03:18:05.105Z,22.00
2018-11-02T03:20:33.047Z,18.03
2018-11-02T03:23:01.089Z,24.70
2018-11-02T03:25:29.145Z,26.93
2018-11-02T03:27:57.199Z,27.87
2018-11-02T03:30:25.201Z,25.87
2018-11-02T03:32:53.211Z,21.17
2018-11-02T03:35:21.369Z,25.17
2018-11-02T03:37:49.421Z,24.73
2018-11-02T03:40:17.435Z,23.93
2018-11-02T03:42:45.460Z,19.73
2018-11-02T03:45:13.560Z,17.23
2018-11-02T03:47:41.644Z,15.27
2018-11-02T03:50:11.191Z,15.50
2018-11-02T03:52:39.715Z,10.20
2018-11-02T03:55:08.550Z,7.77
2018-11-02T03:57:36.611Z,5.40
2018-11-02T04:00:05.788Z,3.37
2018-11-02T04:02:33.816Z,3.23
2018-11-02T04:05:02.910Z,2.30
2018-11-02T04:07:31.385Z,2.00
2018-11-02T04:09:59.440Z,1.90
2018-11-02T04:12:29.419Z,1.97
2018-11-02T04:14:58.985Z,2.10
2018-11-02T04:17:26.942Z,1.80
2018-11-02T04:19:55.063Z,3.40
2018-11-02T04:22:23.037Z,2.53
2018-11-02T04:24:51.002Z,1.90
2018-11-02T04:27:18.978Z,1.90
2018-11-02T04:29:47.762Z,3.13
2018-11-02T04:32:15.819Z,2.73
2018-11-02T04:34:43.804Z,2.80
2018-11-02T04:37:11.808Z,2.00
2018-11-02T04:39:39.879Z,2.60
2018-11-02T04:42:07.835Z,2.60
2018-11-02T04:44:35.824Z,2.20
2018-11-02T04:47:03.816Z,1.97
2018-11-02T04:49:31.830Z,2.97
2018-11-02T04:51:59.962Z,2.30
2018-11-02T04:54:27.920Z,2.37
2018-11-02T04:56:55.917Z,2.10
2018-11-02T04:59:23.860Z,2.77
2018-11-02T05:01:51.891Z,2.83
2018-11-02T05:04:19.840Z,2.30
2018-11-02T05:06:47.821Z,3.13
2018-11-02T05:09:15.803Z,2.90
2018-11-02T05:11:43.912Z,2.93
2018-11-02T05:14:11.896Z,3.20
2018-11-02T05:16:39.877Z,2.60
2018-11-02T05:19:07.850Z,3.20
2018-11-02T05:21:35.785Z,1.93
2018-11-02T05:24:03.868Z,2.43
2018-11-02T05:26:31.802Z,2.40
2018-11-02T05:28:59.691Z,2.60
2018-11-02T05:31:27.641Z,2.30
2018-11-02T05:33:55.703Z,2.50
2018-11-02T05:36:23.701Z,1.90
2018-11-02T05:38:51.693Z,2.20
2018-11-02T05:41:19.641Z,2.20
2018-11-02T05:43:47.604Z,3.43
2018-11-02T05:46:15.615Z,2.30
2018-11-02T05:48:43.568Z,2.43
2018-11-02T05:51:11.726Z,2.93
2018-11-02T05:53:39.706Z,2.07
2018-11-02T05:56:07.861Z,1.73
2018-11-02T05:58:36.664Z,2.40
2018-11-02T06:01:05.302Z,1.93
2018-11-02T06:03:33.290Z,2.20
2018-11-02T06:06:03.042Z,1.90
2018-11-02T06:08:33.069Z,1.97
2018-11-02T06:11:01.100Z,1.70
2018-11-02T06:13:29.136Z,1.87
2018-11-02T06:15:57.110Z,2.00
2018-11-02T06:18:25.668Z,2.30
2018-11-02T06:20:55.714Z,2.10
2018-11-02T06:23:23.733Z,1.43
2018-11-02T06:25:51.678Z,2.00
2018-11-02T06:28:19.660Z,1.80
2018-11-02T06:30:49.756Z,2.07
2018-11-02T06:33:18.834Z,1.80
2018-11-02T06:35:46.832Z,1.77
2018-11-02T06:38:14.821Z,1.90
2018-11-02T06:40:42.853Z,2.00
2018-11-02T06:43:11.400Z,2.23
2018-11-02T06:45:41.345Z,2.20
2018-11-02T06:48:10.156Z,2.00
2018-11-02T06:50:38.259Z,2.00
2018-11-02T06:53:06.202Z,2.00
2018-11-02T06:55:34.180Z,2.10
2018-11-02T06:58:02.279Z,1.87
2018-11-02T07:00:30.542Z,1.80
2018-11-02T07:02:58.530Z,1.80
2018-11-02T07:05:31.723Z,2.40
2018-11-02T07:08:01.196Z,2.10
2018-11-02T07:10:28.929Z,2.07
2018-11-02T07:12:57.035Z,2.43
2018-11-02T07:15:25.020Z,2.00
2018-11-02T07:17:53.094Z,2.37
2018-11-02T07:20:44.003Z,2.10
2018-11-02T07:23:12.156Z,1.73
2018-11-02T07:25:40.190Z,1.80
2018-11-02T07:28:08.698Z,2.00
2018-11-02T07:30:36.744Z,1.90
2018-11-02T07:33:04.973Z,2.30
2018-11-02T07:35:32.919Z,1.70
2018-11-02T07:38:01.169Z,2.10
2018-11-02T07:40:30.264Z,2.20
2018-11-02T07:42:58.221Z,1.77
2018-11-02T07:45:26.347Z,1.80
2018-11-02T07:47:54.353Z,1.70
2018-11-02T07:50:22.344Z,2.10
2018-11-02T07:52:50.744Z,2.23
2018-11-02T07:55:18.710Z,1.80
2018-11-02T07:57:46.648Z,1.80
2018-11-02T08:00:16.057Z,2.17
2018-11-02T08:02:45.724Z,1.50
2018-11-02T08:05:14.335Z,2.00
2018-11-02T08:07:42.496Z,1.77
2018-11-02T08:10:10.586Z,1.87
2018-11-02T08:12:38.630Z,2.07
2018-11-02T08:15:08.401Z,1.60
2018-11-02T08:17:37.312Z,1.97
2018-11-02T08:20:05.797Z,2.00
2018-11-02T08:22:33.849Z,2.00
2018-11-02T08:25:01.833Z,2.40
2018-11-02T08:27:31.409Z,2.10
2018-11-02T08:30:00.153Z,1.53
2018-11-02T08:32:28.238Z,2.00
2018-11-02T08:34:56.177Z,2.27
2018-11-02T08:37:24.124Z,2.07
2018-11-02T08:39:52.037Z,2.50
2018-11-02T08:42:20.099Z,2.17
2018-11-02T08:44:48.158Z,2.73
2018-11-02T08:47:16.309Z,2.13
2018-11-02T08:49:44.485Z,2.93
2018-11-02T08:52:12.604Z,2.50
2018-11-02T08:54:40.573Z,2.07
2018-11-02T08:57:08.594Z,1.20
2018-11-02T08:59:36.734Z,1.23
2018-11-02T09:02:04.676Z,1.43
2018-11-02T09:04:32.739Z,1.20
2018-11-02T09:07:01.188Z,1.30
2018-11-02T09:09:29.207Z,1.40
2018-11-02T09:11:57.212Z,1.00
2018-11-02T09:14:25.203Z,1.00
2018-11-02T09:16:53.178Z,0.90
2018-11-02T09:19:21.249Z,1.20
2018-11-02T09:21:49.154Z,1.20
2018-11-02T09:24:17.262Z,1.10
2018-11-02T09:26:45.242Z,1.30
2018-11-02T09:29:13.233Z,0.90
2018-11-02T09:31:41.252Z,1.10
2018-11-02T09:34:09.280Z,1.37
2018-11-02T09:36:37.688Z,1.53
2018-11-02T09:39:08.027Z,1.30
2018-11-02T09:41:36.109Z,1.20
2018-11-02T09:44:04.660Z,1.10
2018-11-02T09:46:32.683Z,1.13
2018-11-02T09:49:00.814Z,1.33
2018-11-02T09:51:28.930Z,1.00
2018-11-02T09:53:56.957Z,1.10
2018-11-02T09:56:25.063Z,1.10
2018-11-02T09:58:53.204Z,1.10
2018-11-02T10:01:21.476Z,1.10
2018-11-02T10:03:49.596Z,1.10
2018-11-02T10:06:17.605Z,0.80
2018-11-02T10:08:45.773Z,1.10
2018-11-02T10:11:15.608Z,1.13
2018-11-02T10:13:43.772Z,1.30
2018-11-02T10:16:12.761Z,1.70
2018-11-02T10:18:40.841Z,1.40
2018-11-02T10:21:08.856Z,1.03
2018-11-02T10:23:37.316Z,1.47
2018-11-02T10:26:05.485Z,1.20
2018-11-02T10:28:33.614Z,1.10
2018-11-02T10:31:01.823Z,1.20
2018-11-02T10:33:30.739Z,1.60
2018-11-02T10:35:59.092Z,1.30
2018-11-02T10:38:27.227Z,1.20
2018-11-02T10:40:57.193Z,1.00
2018-11-02T10:43:26.507Z,1.13
2018-11-02T10:45:57.701Z,0.93
2018-11-02T10:48:27.057Z,1.23
2018-11-02T10:50:55.231Z,1.10
2018-11-02T10:53:23.722Z,0.90
2018-11-02T10:55:52.945Z,1.10
2018-11-02T10:58:21.056Z,1.13
2018-11-02T11:00:54.887Z,1.60
2018-11-02T11:03:23.166Z,0.80
2018-11-02T11:05:51.252Z,1.20
2018-11-02T11:08:19.432Z,1.13
2018-11-02T11:10:47.465Z,1.10
2018-11-02T11:13:16.595Z,1.00
2018-11-02T11:15:44.384Z,1.03
2018-11-02T11:18:12.431Z,1.30
2018-11-02T11:20:40.492Z,0.97
2018-11-02T11:23:08.691Z,1.00
2018-11-02T11:25:36.817Z,1.23
2018-11-02T11:28:05.222Z,0.93
2018-11-02T11:30:33.318Z,1.27
2018-11-02T11:33:01.578Z,1.00
2018-11-02T11:35:29.658Z,1.20
2018-11-02T11:37:57.688Z,1.10
2018-11-02T11:40:25.665Z,1.20
2018-11-02T11:42:53.652Z,0.90
2018-11-02T11:45:21.619Z,1.00
2018-11-02T11:47:49.838Z,1.07
2018-11-02T11:50:20.499Z,0.90
2018-11-02T11:52:49.848Z,0.90
2018-11-02T11:55:18.042Z,0.93
2018-11-02T11:57:46.095Z,1.00
2018-11-02T12:00:16.054Z,1.10
2018-11-02T12:02:45.042Z,0.87
2018-11-02T12:05:14.522Z,1.20
2018-11-02T12:07:42.843Z,1.00
2018-11-02T12:10:15.265Z,1.10
2018-11-02T12:12:43.335Z,1.23
2018-11-02T12:15:13.551Z,1.17
2018-11-02T12:17:42.280Z,1.10
2018-11-02T12:20:13.368Z,1.17
2018-11-02T12:22:41.842Z,1.20
2018-11-02T12:25:11.645Z,1.23
2018-11-02T12:27:39.805Z,1.10
2018-11-02T12:30:09.686Z,1.00
2018-11-02T12:32:37.874Z,0.83
2018-11-02T12:35:07.355Z,0.90
2018-11-02T12:37:35.852Z,1.10
2018-11-02T12:40:05.025Z,0.80
2018-11-02T12:42:32.953Z,0.97
2018-11-02T12:45:00.978Z,0.80
2018-11-02T12:47:28.968Z,1.20
2018-11-02T12:49:57.026Z,0.73
2018-11-02T12:52:24.940Z,0.70
2018-11-02T12:54:53.003Z,0.90
2018-11-02T12:57:20.969Z,1.10
2018-11-02T12:59:48.907Z,0.80
2018-11-02T13:02:16.859Z,0.73
2018-11-02T13:04:44.839Z,1.10
2018-11-02T13:07:13.006Z,1.20
2018-11-02T13:09:41.139Z,1.03
2018-11-02T13:12:09.047Z,1.33
2018-11-02T13:14:36.992Z,1.00
2018-11-02T13:17:05.178Z,1.00
2018-11-02T13:19:33.205Z,1.00
2018-11-02T13:22:02.232Z,0.90
2018-11-02T13:24:30.197Z,1.07
2018-11-02T13:26:58.181Z,0.90
2018-11-02T13:29:26.192Z,0.90
2018-11-02T13:31:54.261Z,0.70
2018-11-02T13:34:22.177Z,0.97
2018-11-02T13:36:50.272Z,1.40
2018-11-02T13:39:18.220Z,1.20
2018-11-02T13:41:49.129Z,1.27
2018-11-02T13:44:18.045Z,0.80
2018-11-02T13:46:47.619Z,0.80
2018-11-02T13:49:22.701Z,0.97
2018-11-02T13:51:50.732Z,1.10
2018-11-02T13:54:19.506Z,0.80
2018-11-02T13:56:47.482Z,0.63
2018-11-02T13:59:15.534Z,0.70
2018-11-02T14:01:44.278Z,0.87
2018-11-02T14:04:12.520Z,1.10
2018-11-02T14:06:40.608Z,0.80
2018-11-02T14:09:08.695Z,1.00
2018-11-02T14:11:36.953Z,0.90
2018-11-02T14:14:05.028Z,1.00
2018-11-02T14:16:33.048Z,0.80
2018-11-02T14:19:00.993Z,0.80
2018-11-02T14:21:28.987Z,1.00
2018-11-02T14:23:57.816Z,0.90
2018-11-02T14:26:25.787Z,0.83
2018-11-02T14:28:53.832Z,0.80
2018-11-02T14:31:21.819Z,0.93
2018-11-02T14:33:49.792Z,0.80
2018-11-02T14:36:18.592Z,0.90
2018-11-02T14:38:47.081Z,1.30
2018-11-02T14:41:15.116Z,1.27
2018-11-02T14:43:43.116Z,0.90
2018-11-02T14:46:11.101Z,1.30
2018-11-02T14:48:39.065Z,0.80
2018-11-02T14:51:07.937Z,1.13
2018-11-02T14:53:35.958Z,0.77
2018-11-02T14:56:03.869Z,1.10
2018-11-02T14:58:31.805Z,1.20
2018-11-02T15:01:00.534Z,1.23
2018-11-02T15:03:30.321Z,1.10
2018-11-02T15:05:58.348Z,0.80
2018-11-02T15:08:26.259Z,1.67
2018-11-02T15:11:03.623Z,1.10
2018-11-02T15:13:33.410Z,1.30
2018-11-02T15:16:02.695Z,0.70
2018-11-02T15:18:31.669Z,0.90
2018-11-02T15:21:02.483Z,0.73
2018-11-02T15:23:41.762Z,0.80
2018-11-02T15:26:09.920Z,0.80
2018-11-02T15:28:38.125Z,0.80
2018-11-02T15:31:06.398Z,0.80
2018-11-02T15:33:34.496Z,1.10
2018-11-02T15:36:02.659Z,1.27
2018-11-02T15:38:30.734Z,0.80
2018-11-02T15:40:58.794Z,0.97
2018-11-02T15:43:26.792Z,0.90
2018-11-02T15:45:54.809Z,1.00
2018-11-02T15:48:22.809Z,1.00
2018-11-02T15:50:50.819Z,1.47
2018-11-02T15:53:20.461Z,1.00
2018-11-02T15:55:48.478Z,1.20
2018-11-02T15:58:16.466Z,1.20
2018-11-02T16:00:44.618Z,0.80
2018-11-02T16:03:12.497Z,1.20
2018-11-02T16:05:40.566Z,1.63
2018-11-02T16:08:08.639Z,1.67
2018-11-02T16:10:36.650Z,1.67
2018-11-02T16:13:04.758Z,1.20
2018-11-02T16:15:32.875Z,1.47
2018-11-02T16:18:07.089Z,1.23
2018-11-02T16:20:39.851Z,1.03
2018-11-02T16:23:07.902Z,1.13
2018-11-02T16:25:35.933Z,1.00
2018-11-02T16:28:03.990Z,1.10
2018-11-02T16:30:32.220Z,1.20
2018-11-02T16:33:00.185Z,1.40
2018-11-02T16:35:28.203Z,2.10
2018-11-02T16:37:56.257Z,3.70
2018-11-02T16:40:24.313Z,2.33
2018-11-02T16:42:52.298Z,1.67
2018-11-02T16:45:20.445Z,1.70
2018-11-02T16:47:48.548Z,1.37
2018-11-02T16:50:16.511Z,1.20
2018-11-02T16:52:44.767Z,1.10
2018-11-02T16:55:12.702Z,1.20
2018-11-02T16:57:40.731Z,1.57
2018-11-02T17:00:12.388Z,1.27
2018-11-02T17:02:40.435Z,0.90
2018-11-02T17:05:09.016Z,1.30
2018-11-02T17:07:36.840Z,0.97
2018-11-02T17:10:05.921Z,1.07
2018-11-02T17:12:33.868Z,1.00
2018-11-02T17:15:02.425Z,0.90
2018-11-02T17:17:30.433Z,1.10
2018-11-02T17:19:58.458Z,1.00
2018-11-02T17:22:26.512Z,1.00
2018-11-02T17:24:54.404Z,1.27
2018-11-02T17:27:22.380Z,1.03
2018-11-02T17:29:50.399Z,0.80
2018-11-02T17:32:18.423Z,1.20
2018-11-02T17:34:46.390Z,1.17
2018-11-02T17:37:14.436Z,1.70
2018-11-02T17:39:42.530Z,1.80
2018-11-02T17:42:10.524Z,2.27
2018-11-02T17:44:38.549Z,2.10
2018-11-02T17:47:07.240Z,1.73
2018-11-02T17:49:35.489Z,1.50
2018-11-02T17:52:03.569Z,1.37
2018-11-02T17:54:31.622Z,1.50
2018-11-02T17:56:59.585Z,1.43
2018-11-02T17:59:27.832Z,1.17
2018-11-02T18:01:55.858Z,1.20
2018-11-02T18:04:23.973Z,1.07
2018-11-02T18:06:52.162Z,1.40
2018-11-02T18:09:20.127Z,0.93
2018-11-02T18:11:49.845Z,0.80
2018-11-02T18:14:17.811Z,1.30
2018-11-02T18:16:45.926Z,1.40
2018-11-02T18:19:13.922Z,1.40
2018-11-02T18:21:41.994Z,1.20
2018-11-02T18:24:10.066Z,1.27
2018-11-02T18:26:38.021Z,1.10
2018-11-02T18:29:06.049Z,1.63
2018-11-02T18:31:34.026Z,1.93
2018-11-02T18:34:02.119Z,1.43
2018-11-02T18:36:30.199Z,1.17
2018-11-02T18:38:58.234Z,1.20
2018-11-02T18:41:26.270Z,1.00
2018-11-02T18:43:54.234Z,1.10
2018-11-02T18:46:22.317Z,1.73
2018-11-02T18:48:50.264Z,1.20
2018-11-02T18:51:18.336Z,1.30
2018-11-02T18:53:46.353Z,1.57
2018-11-02T18:56:14.367Z,1.63
2018-11-02T18:58:42.360Z,1.40
2018-11-02T19:01:10.394Z,1.77
2018-11-02T19:03:38.631Z,1.60
2018-11-02T19:06:06.702Z,1.80
2018-11-02T19:08:34.676Z,1.80
2018-11-02T19:11:02.689Z,2.30
2018-11-02T19:13:30.767Z,2.53
2018-11-02T19:15:58.767Z,2.47
2018-11-02T19:18:27.017Z,2.50
2018-11-02T19:20:55.039Z,2.10
2018-11-02T19:23:23.134Z,2.10
2018-11-02T19:25:51.118Z,2.37
2018-11-02T19:28:19.148Z,2.10
2018-11-02T19:30:47.226Z,1.80
2018-11-02T19:33:15.208Z,2.30
2018-11-02T19:35:43.231Z,2.33
2018-11-02T19:38:11.443Z,2.07
2018-11-02T19:40:39.145Z,2.13
2018-11-02T19:43:07.134Z,2.80
2018-11-02T19:45:35.077Z,2.03
2018-11-02T19:48:04.094Z,2.87
2018-11-02T19:50:32.102Z,2.50
2018-11-02T19:53:00.166Z,2.23
2018-11-02T19:55:28.222Z,2.50
2018-11-02T19:57:56.179Z,3.17
2018-11-02T20:00:24.249Z,2.60
2018-11-02T20:02:52.346Z,2.53
2018-11-02T20:05:20.873Z,2.67
2018-11-02T20:07:48.878Z,2.50
2018-11-02T20:10:17.645Z,2.90
2018-11-02T20:12:47.686Z,2.70
2018-11-02T20:15:16.623Z,2.73
2018-11-02T20:17:44.796Z,2.53
2018-11-02T20:20:13.954Z,2.93
2018-11-02T20:22:41.962Z,8.97
2018-11-02T20:25:11.901Z,4.03
2018-11-02T20:27:40.621Z,5.57
2018-11-02T20:30:11.828Z,4.77
2018-11-02T20:32:42.320Z,4.67
2018-11-02T20:35:11.189Z,5.40
2018-11-02T20:37:39.670Z,5.10
2018-11-02T20:40:10.475Z,3.70
2018-11-02T20:42:38.876Z,3.20
2018-11-02T20:45:07.261Z,2.90
2018-11-02T20:47:40.965Z,3.10
2018-11-02T20:50:10.152Z,3.10
2018-11-02T20:52:38.510Z,2.87
2018-11-02T20:55:07.581Z,3.23
2018-11-02T20:57:35.989Z,2.93
2018-11-02T21:00:04.952Z,2.90
2018-11-02T21:02:33.057Z,2.50
2018-11-02T21:05:02.061Z,2.53
2018-11-02T21:07:30.029Z,2.33
2018-11-02T21:09:58.420Z,2.93
2018-11-02T21:12:26.405Z,3.00
2018-11-02T21:14:54.544Z,2.33
2018-11-02T21:17:22.436Z,2.37
2018-11-02T21:19:53.387Z,2.60
2018-11-02T21:22:22.303Z,2.67
2018-11-02T21:24:50.346Z,2.40
2018-11-02T21:27:19.590Z,2.53
2018-11-02T21:29:47.757Z,2.07
2018-11-02T21:32:15.855Z,2.57
2018-11-02T21:34:44.089Z,2.97
2018-11-02T21:37:12.148Z,3.13
2018-11-02T21:39:40.341Z,2.87
2018-11-02T21:42:08.578Z,2.83
2018-11-02T21:44:37.159Z,3.00
2018-11-02T21:47:05.846Z,2.70
2018-11-02T21:49:33.976Z,3.60
2018-11-02T21:52:01.938Z,3.70
2018-11-02T21:54:29.890Z,3.00
2018-11-02T21:56:57.884Z,2.73
2018-11-02T21:59:26.213Z,2.23
2018-11-02T22:01:54.253Z,2.40
2018-11-02T22:04:22.328Z,3.10
2018-11-02T22:06:50.416Z,2.90
2018-11-02T22:09:18.412Z,3.43
2018-11-02T22:11:46.334Z,3.40
2018-11-02T22:14:14.302Z,3.17
2018-11-02T22:16:42.215Z,3.07
2018-11-02T22:19:10.286Z,3.00
2018-11-02T22:21:38.211Z,2.77
2018-11-02T22:24:06.164Z,2.30
2018-11-02T22:26:34.058Z,2.80
2018-11-02T22:29:02.170Z,2.60
2018-11-02T22:31:30.048Z,3.30
2018-11-02T22:33:57.987Z,2.90
2018-11-02T22:36:26.011Z,3.23
2018-11-02T22:38:53.976Z,3.00
2018-11-02T22:41:21.925Z,2.90
2018-11-02T22:43:49.880Z,2.70
2018-11-02T22:46:17.810Z,3.10
2018-11-02T22:48:45.822Z,3.27
2018-11-02T22:51:13.772Z,2.70
2018-11-02T22:53:41.704Z,2.90
2018-11-02T22:56:09.682Z,3.33
2018-11-02T22:58:37.651Z,3.20
2018-11-02T23:01:11.498Z,2.67
2018-11-02T23:03:39.469Z,2.80
2018-11-02T23:06:07.556Z,2.60
2018-11-02T23:08:35.560Z,2.70
2018-11-02T23:11:03.525Z,2.50
2018-11-02T23:13:31.496Z,2.50
2018-11-02T23:15:59.541Z,2.80
2018-11-02T23:18:27.831Z,3.40
2018-11-02T23:20:55.861Z,2.60
2018-11-02T23:23:23.846Z,2.50
2018-11-02T23:25:51.933Z,2.23
2018-11-02T23:28:19.979Z,2.50
2018-11-02T23:30:47.942Z,2.13
2018-11-02T23:33:15.917Z,2.57
2018-11-02T23:35:43.941Z,2.60
2018-11-02T23:38:11.914Z,2.43
2018-11-02T23:40:39.877Z,2.40
2018-11-02T23:43:07.850Z,2.10
2018-11-02T23:45:35.803Z,2.40
2018-11-02T23:48:10.867Z,2.67
2018-11-02T23:50:38.846Z,2.70
2018-11-02T23:53:06.921Z,2.80
2018-11-02T23:55:34.861Z,3.57
2018-11-02T23:58:02.928Z,2.70
